sensor_id;sensor_type;location;lat;lon;timestamp;P1;durP1;ratioP1;P2;durP2;ratioP2
39020;SDS011;25188;51.958;5.842;2023-05-09T00:00:43;51.95;;;31.08;;
39020;SDS011;25188;51.958;5.842;2023-05-09T00:03:10;55.95;;;29.77;;
39020;SDS011;25188;51.958;5.842;2023-05-09T00:05:36;51.72;;;30.55;;
39020;SDS011;25188;51.958;5.842;2023-05-09T00:08:02;52.35;;;29.92;;
39020;SDS011;25188;51.958;5.842;2023-05-09T00:10:28;49.72;;;29.48;;
39020;SDS011;25188;51.958;5.842;2023-05-09T00:12:55;50.28;;;29.00;;
39020;SDS011;25188;51.958;5.842;2023-05-09T00:15:21;48.70;;;29.40;;
39020;SDS011;25188;51.958;5.842;2023-05-09T00:17:47;51.42;;;29.15;;
39020;SDS011;25188;51.958;5.842;2023-05-09T00:20:14;53.25;;;30.50;;
39020;SDS011;25188;51.958;5.842;2023-05-09T00:22:40;47.25;;;29.20;;
39020;SDS011;25188;51.958;5.842;2023-05-09T00:25:06;54.80;;;32.03;;
39020;SDS011;25188;51.958;5.842;2023-05-09T00:27:35;54.47;;;32.15;;
39020;SDS011;25188;51.958;5.842;2023-05-09T00:30:04;51.30;;;31.50;;
39020;SDS011;25188;51.958;5.842;2023-05-09T00:32:31;49.13;;;29.27;;
39020;SDS011;25188;51.958;5.842;2023-05-09T00:34:57;58.53;;;31.98;;
39020;SDS011;25188;51.958;5.842;2023-05-09T00:37:22;55.33;;;31.80;;
39020;SDS011;25188;51.958;5.842;2023-05-09T00:39:48;51.45;;;30.42;;
39020;SDS011;25188;51.958;5.842;2023-05-09T00:42:14;49.17;;;30.10;;
39020;SDS011;25188;51.958;5.842;2023-05-09T00:44:40;57.40;;;32.58;;
39020;SDS011;25188;51.958;5.842;2023-05-09T00:47:06;55.75;;;31.65;;
39020;SDS011;25188;51.958;5.842;2023-05-09T00:49:32;51.03;;;31.10;;
39020;SDS011;25188;51.958;5.842;2023-05-09T00:51:58;51.40;;;30.98;;
39020;SDS011;25188;51.958;5.842;2023-05-09T00:54:25;56.63;;;32.17;;
39020;SDS011;25188;51.958;5.842;2023-05-09T00:56:50;54.75;;;32.13;;
39020;SDS011;25188;51.958;5.842;2023-05-09T00:59:16;56.10;;;32.22;;
39020;SDS011;25188;51.958;5.842;2023-05-09T01:01:43;60.95;;;33.35;;
39020;SDS011;25188;51.958;5.842;2023-05-09T01:04:09;57.72;;;32.45;;
39020;SDS011;25188;51.958;5.842;2023-05-09T01:15:07;55.75;;;30.25;;
39020;SDS011;25188;51.958;5.842;2023-05-09T01:20:24;59.65;;;31.92;;
39020;SDS011;25188;51.958;5.842;2023-05-09T01:32:03;55.55;;;31.02;;
39020;SDS011;25188;51.958;5.842;2023-05-09T01:34:33;61.20;;;32.22;;
39020;SDS011;25188;51.958;5.842;2023-05-09T01:37:01;57.72;;;32.40;;
39020;SDS011;25188;51.958;5.842;2023-05-09T01:39:29;53.92;;;31.23;;
39020;SDS011;25188;51.958;5.842;2023-05-09T01:41:58;58.05;;;32.63;;
39020;SDS011;25188;51.958;5.842;2023-05-09T01:44:27;56.40;;;32.90;;
39020;SDS011;25188;51.958;5.842;2023-05-09T01:46:59;58.42;;;33.78;;
39020;SDS011;25188;51.958;5.842;2023-05-09T01:49:29;57.10;;;33.30;;
39020;SDS011;25188;51.958;5.842;2023-05-09T01:51:58;57.83;;;32.20;;
39020;SDS011;25188;51.958;5.842;2023-05-09T01:54:29;65.13;;;35.95;;
39020;SDS011;25188;51.958;5.842;2023-05-09T01:56:56;61.40;;;33.38;;
39020;SDS011;25188;51.958;5.842;2023-05-09T01:59:23;58.67;;;33.13;;
39020;SDS011;25188;51.958;5.842;2023-05-09T02:01:50;62.78;;;34.70;;
39020;SDS011;25188;51.958;5.842;2023-05-09T02:04:19;57.58;;;33.67;;
39020;SDS011;25188;51.958;5.842;2023-05-09T02:06:45;64.35;;;34.63;;
39020;SDS011;25188;51.958;5.842;2023-05-09T02:09:14;60.22;;;34.38;;
39020;SDS011;25188;51.958;5.842;2023-05-09T02:11:41;62.83;;;34.47;;
39020;SDS011;25188;51.958;5.842;2023-05-09T02:14:07;65.95;;;35.72;;
39020;SDS011;25188;51.958;5.842;2023-05-09T02:16:33;61.30;;;34.22;;
39020;SDS011;25188;51.958;5.842;2023-05-09T02:19:03;63.10;;;35.10;;
39020;SDS011;25188;51.958;5.842;2023-05-09T02:21:29;57.15;;;33.50;;
39020;SDS011;25188;51.958;5.842;2023-05-09T02:23:55;67.50;;;37.38;;
39020;SDS011;25188;51.958;5.842;2023-05-09T02:26:20;65.85;;;36.65;;
39020;SDS011;25188;51.958;5.842;2023-05-09T02:28:46;67.60;;;38.10;;
39020;SDS011;25188;51.958;5.842;2023-05-09T02:31:13;63.28;;;34.47;;
39020;SDS011;25188;51.958;5.842;2023-05-09T02:33:43;62.33;;;34.60;;
39020;SDS011;25188;51.958;5.842;2023-05-09T02:36:10;64.82;;;36.08;;
39020;SDS011;25188;51.958;5.842;2023-05-09T02:38:38;64.63;;;36.50;;
39020;SDS011;25188;51.958;5.842;2023-05-09T02:41:05;68.32;;;36.50;;
39020;SDS011;25188;51.958;5.842;2023-05-09T02:43:31;67.90;;;36.28;;
39020;SDS011;25188;51.958;5.842;2023-05-09T02:45:57;66.38;;;36.53;;
39020;SDS011;25188;51.958;5.842;2023-05-09T02:48:22;65.95;;;36.70;;
39020;SDS011;25188;51.958;5.842;2023-05-09T02:50:48;67.22;;;36.47;;
39020;SDS011;25188;51.958;5.842;2023-05-09T02:53:14;64.97;;;35.72;;
39020;SDS011;25188;51.958;5.842;2023-05-09T02:55:40;62.55;;;34.92;;
39020;SDS011;25188;51.958;5.842;2023-05-09T02:58:06;65.65;;;36.25;;
39020;SDS011;25188;51.958;5.842;2023-05-09T03:00:32;61.65;;;35.00;;
39020;SDS011;25188;51.958;5.842;2023-05-09T03:02:58;60.95;;;34.90;;
39020;SDS011;25188;51.958;5.842;2023-05-09T03:05:24;68.68;;;36.40;;
39020;SDS011;25188;51.958;5.842;2023-05-09T03:07:50;71.00;;;37.30;;
39020;SDS011;25188;51.958;5.842;2023-05-09T03:10:16;69.47;;;36.65;;
39020;SDS011;25188;51.958;5.842;2023-05-09T03:12:41;63.78;;;34.47;;
39020;SDS011;25188;51.958;5.842;2023-05-09T03:15:07;64.15;;;35.83;;
39020;SDS011;25188;51.958;5.842;2023-05-09T03:17:33;67.75;;;37.20;;
39020;SDS011;25188;51.958;5.842;2023-05-09T03:20:00;60.63;;;35.30;;
39020;SDS011;25188;51.958;5.842;2023-05-09T03:22:25;60.45;;;35.03;;
39020;SDS011;25188;51.958;5.842;2023-05-09T03:24:51;63.05;;;33.00;;
39020;SDS011;25188;51.958;5.842;2023-05-09T03:27:16;65.78;;;35.08;;
39020;SDS011;25188;51.958;5.842;2023-05-09T03:29:42;58.10;;;33.25;;
39020;SDS011;25188;51.958;5.842;2023-05-09T03:32:08;59.20;;;31.50;;
39020;SDS011;25188;51.958;5.842;2023-05-09T03:34:33;51.45;;;31.33;;
39020;SDS011;25188;51.958;5.842;2023-05-09T03:36:59;55.40;;;31.55;;
39020;SDS011;25188;51.958;5.842;2023-05-09T03:39:25;51.17;;;28.17;;
39020;SDS011;25188;51.958;5.842;2023-05-09T03:41:50;55.08;;;31.08;;
39020;SDS011;25188;51.958;5.842;2023-05-09T03:44:16;50.40;;;30.63;;
39020;SDS011;25188;51.958;5.842;2023-05-09T03:46:41;54.50;;;31.08;;
39020;SDS011;25188;51.958;5.842;2023-05-09T03:49:07;49.75;;;29.30;;
39020;SDS011;25188;51.958;5.842;2023-05-09T03:51:33;52.90;;;29.05;;
39020;SDS011;25188;51.958;5.842;2023-05-09T03:53:58;53.13;;;30.40;;
39020;SDS011;25188;51.958;5.842;2023-05-09T03:56:24;46.72;;;27.98;;
39020;SDS011;25188;51.958;5.842;2023-05-09T03:58:50;50.20;;;28.65;;
39020;SDS011;25188;51.958;5.842;2023-05-09T04:01:16;49.30;;;28.95;;
39020;SDS011;25188;51.958;5.842;2023-05-09T04:03:42;50.17;;;29.30;;
39020;SDS011;25188;51.958;5.842;2023-05-09T04:06:07;52.63;;;29.50;;
39020;SDS011;25188;51.958;5.842;2023-05-09T04:08:33;48.10;;;28.42;;
39020;SDS011;25188;51.958;5.842;2023-05-09T04:10:59;46.38;;;27.40;;
39020;SDS011;25188;51.958;5.842;2023-05-09T04:13:25;49.67;;;27.80;;
39020;SDS011;25188;51.958;5.842;2023-05-09T04:15:52;48.20;;;28.27;;
39020;SDS011;25188;51.958;5.842;2023-05-09T04:18:17;48.20;;;28.63;;
39020;SDS011;25188;51.958;5.842;2023-05-09T04:20:43;46.40;;;27.67;;
39020;SDS011;25188;51.958;5.842;2023-05-09T04:23:08;45.80;;;27.52;;
39020;SDS011;25188;51.958;5.842;2023-05-09T04:25:34;43.80;;;26.08;;
39020;SDS011;25188;51.958;5.842;2023-05-09T04:28:01;42.30;;;25.75;;
39020;SDS011;25188;51.958;5.842;2023-05-09T04:30:26;42.17;;;25.15;;
39020;SDS011;25188;51.958;5.842;2023-05-09T04:32:52;38.58;;;23.48;;
39020;SDS011;25188;51.958;5.842;2023-05-09T04:35:19;39.40;;;24.42;;
39020;SDS011;25188;51.958;5.842;2023-05-09T04:37:45;40.60;;;22.58;;
39020;SDS011;25188;51.958;5.842;2023-05-09T04:40:11;40.72;;;23.88;;
39020;SDS011;25188;51.958;5.842;2023-05-09T04:42:37;37.83;;;23.67;;
39020;SDS011;25188;51.958;5.842;2023-05-09T04:45:03;39.15;;;23.23;;
39020;SDS011;25188;51.958;5.842;2023-05-09T04:47:29;37.15;;;23.08;;
39020;SDS011;25188;51.958;5.842;2023-05-09T04:49:55;36.47;;;21.73;;
39020;SDS011;25188;51.958;5.842;2023-05-09T04:52:21;36.00;;;22.55;;
39020;SDS011;25188;51.958;5.842;2023-05-09T04:54:46;36.72;;;22.42;;
39020;SDS011;25188;51.958;5.842;2023-05-09T04:57:12;37.70;;;22.02;;
39020;SDS011;25188;51.958;5.842;2023-05-09T04:59:38;38.10;;;23.85;;
39020;SDS011;25188;51.958;5.842;2023-05-09T05:02:03;38.22;;;22.30;;
39020;SDS011;25188;51.958;5.842;2023-05-09T05:04:29;36.55;;;22.35;;
39020;SDS011;25188;51.958;5.842;2023-05-09T05:06:55;35.45;;;22.67;;
39020;SDS011;25188;51.958;5.842;2023-05-09T05:09:21;40.67;;;23.27;;
39020;SDS011;25188;51.958;5.842;2023-05-09T05:11:47;38.03;;;22.55;;
39020;SDS011;25188;51.958;5.842;2023-05-09T05:14:12;36.25;;;23.05;;
39020;SDS011;25188;51.958;5.842;2023-05-09T05:16:38;33.17;;;21.35;;
39020;SDS011;25188;51.958;5.842;2023-05-09T05:19:03;35.38;;;21.63;;
39020;SDS011;25188;51.958;5.842;2023-05-09T05:21:29;33.95;;;21.38;;
39020;SDS011;25188;51.958;5.842;2023-05-09T05:23:55;32.33;;;20.75;;
39020;SDS011;25188;51.958;5.842;2023-05-09T05:26:20;35.25;;;21.45;;
39020;SDS011;25188;51.958;5.842;2023-05-09T05:28:46;37.28;;;23.33;;
39020;SDS011;25188;51.958;5.842;2023-05-09T05:31:12;30.10;;;20.08;;
39020;SDS011;25188;51.958;5.842;2023-05-09T05:33:37;34.03;;;21.00;;
39020;SDS011;25188;51.958;5.842;2023-05-09T05:36:03;33.40;;;21.00;;
39020;SDS011;25188;51.958;5.842;2023-05-09T05:38:29;32.42;;;20.67;;
39020;SDS011;25188;51.958;5.842;2023-05-09T05:40:55;31.73;;;19.85;;
39020;SDS011;25188;51.958;5.842;2023-05-09T05:43:20;31.05;;;19.77;;
39020;SDS011;25188;51.958;5.842;2023-05-09T05:45:46;30.25;;;20.00;;
39020;SDS011;25188;51.958;5.842;2023-05-09T05:48:11;33.55;;;20.00;;
39020;SDS011;25188;51.958;5.842;2023-05-09T05:50:37;30.90;;;19.17;;
39020;SDS011;25188;51.958;5.842;2023-05-09T05:53:03;29.02;;;18.35;;
39020;SDS011;25188;51.958;5.842;2023-05-09T05:55:28;29.55;;;18.73;;
39020;SDS011;25188;51.958;5.842;2023-05-09T05:57:54;29.52;;;18.92;;
39020;SDS011;25188;51.958;5.842;2023-05-09T06:00:20;30.52;;;18.60;;
39020;SDS011;25188;51.958;5.842;2023-05-09T06:02:45;34.08;;;20.45;;
39020;SDS011;25188;51.958;5.842;2023-05-09T06:05:11;26.95;;;18.30;;
39020;SDS011;25188;51.958;5.842;2023-05-09T06:07:37;28.30;;;19.95;;
39020;SDS011;25188;51.958;5.842;2023-05-09T06:10:08;26.67;;;18.70;;
39020;SDS011;25188;51.958;5.842;2023-05-09T06:12:34;25.80;;;16.95;;
39020;SDS011;25188;51.958;5.842;2023-05-09T06:14:59;26.58;;;16.48;;
39020;SDS011;25188;51.958;5.842;2023-05-09T06:17:25;25.58;;;15.68;;
39020;SDS011;25188;51.958;5.842;2023-05-09T06:19:51;22.17;;;15.27;;
39020;SDS011;25188;51.958;5.842;2023-05-09T06:22:17;24.75;;;14.85;;
39020;SDS011;25188;51.958;5.842;2023-05-09T06:24:43;21.60;;;15.02;;
39020;SDS011;25188;51.958;5.842;2023-05-09T06:27:08;18.45;;;12.93;;
39020;SDS011;25188;51.958;5.842;2023-05-09T06:29:34;21.65;;;13.52;;
39020;SDS011;25188;51.958;5.842;2023-05-09T06:32:00;21.23;;;13.85;;
39020;SDS011;25188;51.958;5.842;2023-05-09T06:34:26;23.23;;;13.18;;
39020;SDS011;25188;51.958;5.842;2023-05-09T06:36:51;19.20;;;12.98;;
39020;SDS011;25188;51.958;5.842;2023-05-09T06:39:17;19.52;;;12.68;;
39020;SDS011;25188;51.958;5.842;2023-05-09T06:41:42;18.75;;;12.30;;
39020;SDS011;25188;51.958;5.842;2023-05-09T06:44:08;19.25;;;12.52;;
39020;SDS011;25188;51.958;5.842;2023-05-09T06:46:34;20.95;;;13.55;;
39020;SDS011;25188;51.958;5.842;2023-05-09T06:48:59;17.60;;;12.70;;
39020;SDS011;25188;51.958;5.842;2023-05-09T06:51:26;18.27;;;11.80;;
39020;SDS011;25188;51.958;5.842;2023-05-09T06:53:52;21.52;;;13.07;;
39020;SDS011;25188;51.958;5.842;2023-05-09T06:56:18;20.35;;;13.60;;
39020;SDS011;25188;51.958;5.842;2023-05-09T06:58:47;23.05;;;14.23;;
39020;SDS011;25188;51.958;5.842;2023-05-09T07:01:13;19.60;;;13.18;;
39020;SDS011;25188;51.958;5.842;2023-05-09T07:03:38;18.38;;;13.20;;
39020;SDS011;25188;51.958;5.842;2023-05-09T07:06:04;19.60;;;12.95;;
39020;SDS011;25188;51.958;5.842;2023-05-09T07:08:30;19.70;;;12.73;;
39020;SDS011;25188;51.958;5.842;2023-05-09T07:10:55;19.50;;;12.88;;
39020;SDS011;25188;51.958;5.842;2023-05-09T07:13:21;20.80;;;12.63;;
39020;SDS011;25188;51.958;5.842;2023-05-09T07:15:47;16.33;;;11.93;;
39020;SDS011;25188;51.958;5.842;2023-05-09T07:18:13;19.35;;;12.10;;
39020;SDS011;25188;51.958;5.842;2023-05-09T07:20:38;18.75;;;13.05;;
39020;SDS011;25188;51.958;5.842;2023-05-09T07:23:04;16.25;;;11.30;;
39020;SDS011;25188;51.958;5.842;2023-05-09T07:25:30;17.88;;;11.93;;
39020;SDS011;25188;51.958;5.842;2023-05-09T07:28:01;20.33;;;13.65;;
39020;SDS011;25188;51.958;5.842;2023-05-09T07:30:27;17.45;;;11.90;;
39020;SDS011;25188;51.958;5.842;2023-05-09T07:32:53;18.35;;;10.88;;
39020;SDS011;25188;51.958;5.842;2023-05-09T07:35:20;18.50;;;12.20;;
39020;SDS011;25188;51.958;5.842;2023-05-09T07:37:46;16.73;;;11.55;;
39020;SDS011;25188;51.958;5.842;2023-05-09T07:40:11;19.50;;;12.30;;
39020;SDS011;25188;51.958;5.842;2023-05-09T07:42:37;17.65;;;11.80;;
39020;SDS011;25188;51.958;5.842;2023-05-09T07:45:03;16.05;;;12.07;;
39020;SDS011;25188;51.958;5.842;2023-05-09T07:47:32;18.60;;;13.15;;
39020;SDS011;25188;51.958;5.842;2023-05-09T07:49:58;18.52;;;12.00;;
39020;SDS011;25188;51.958;5.842;2023-05-09T07:52:23;18.13;;;12.68;;
39020;SDS011;25188;51.958;5.842;2023-05-09T07:54:49;15.95;;;11.77;;
39020;SDS011;25188;51.958;5.842;2023-05-09T07:57:15;17.27;;;12.02;;
39020;SDS011;25188;51.958;5.842;2023-05-09T07:59:42;16.98;;;12.15;;
39020;SDS011;25188;51.958;5.842;2023-05-09T08:02:07;18.38;;;12.25;;
39020;SDS011;25188;51.958;5.842;2023-05-09T08:04:33;16.30;;;11.30;;
39020;SDS011;25188;51.958;5.842;2023-05-09T08:07:02;17.02;;;12.07;;
39020;SDS011;25188;51.958;5.842;2023-05-09T08:09:28;18.25;;;12.45;;
39020;SDS011;25188;51.958;5.842;2023-05-09T08:11:54;16.60;;;11.30;;
39020;SDS011;25188;51.958;5.842;2023-05-09T08:14:20;17.52;;;12.20;;
39020;SDS011;25188;51.958;5.842;2023-05-09T08:16:45;16.17;;;11.65;;
39020;SDS011;25188;51.958;5.842;2023-05-09T08:19:11;16.42;;;10.65;;
39020;SDS011;25188;51.958;5.842;2023-05-09T08:21:37;16.63;;;11.27;;
39020;SDS011;25188;51.958;5.842;2023-05-09T08:24:02;16.60;;;11.48;;
39020;SDS011;25188;51.958;5.842;2023-05-09T08:26:30;16.35;;;10.95;;
39020;SDS011;25188;51.958;5.842;2023-05-09T08:28:55;16.52;;;10.93;;
39020;SDS011;25188;51.958;5.842;2023-05-09T08:31:21;16.05;;;12.02;;
39020;SDS011;25188;51.958;5.842;2023-05-09T08:33:46;17.38;;;11.68;;
39020;SDS011;25188;51.958;5.842;2023-05-09T08:36:12;16.63;;;11.30;;
39020;SDS011;25188;51.958;5.842;2023-05-09T08:38:38;16.10;;;11.75;;
39020;SDS011;25188;51.958;5.842;2023-05-09T08:41:04;16.48;;;12.13;;
39020;SDS011;25188;51.958;5.842;2023-05-09T08:43:30;18.50;;;11.77;;
39020;SDS011;25188;51.958;5.842;2023-05-09T08:45:58;19.73;;;12.15;;
39020;SDS011;25188;51.958;5.842;2023-05-09T08:48:28;15.52;;;11.35;;
39020;SDS011;25188;51.958;5.842;2023-05-09T08:50:55;16.90;;;12.38;;
39020;SDS011;25188;51.958;5.842;2023-05-09T08:53:21;20.10;;;12.77;;
39020;SDS011;25188;51.958;5.842;2023-05-09T08:55:50;20.25;;;14.75;;
39020;SDS011;25188;51.958;5.842;2023-05-09T08:58:17;20.35;;;12.20;;
39020;SDS011;25188;51.958;5.842;2023-05-09T09:00:44;17.27;;;12.77;;
39020;SDS011;25188;51.958;5.842;2023-05-09T09:03:11;18.27;;;12.32;;
39020;SDS011;25188;51.958;5.842;2023-05-09T09:05:37;19.17;;;14.30;;
39020;SDS011;25188;51.958;5.842;2023-05-09T09:08:05;15.55;;;11.73;;
39020;SDS011;25188;51.958;5.842;2023-05-09T09:10:32;18.88;;;12.43;;
39020;SDS011;25188;51.958;5.842;2023-05-09T09:12:59;16.77;;;11.23;;
39020;SDS011;25188;51.958;5.842;2023-05-09T09:15:29;19.30;;;11.40;;
39020;SDS011;25188;51.958;5.842;2023-05-09T09:18:01;14.73;;;9.73;;
39020;SDS011;25188;51.958;5.842;2023-05-09T09:20:31;14.75;;;10.27;;
39020;SDS011;25188;51.958;5.842;2023-05-09T09:22:59;14.43;;;9.90;;
39020;SDS011;25188;51.958;5.842;2023-05-09T09:25:28;16.33;;;10.55;;
39020;SDS011;25188;51.958;5.842;2023-05-09T09:27:54;13.93;;;10.25;;
39020;SDS011;25188;51.958;5.842;2023-05-09T09:30:21;15.88;;;9.70;;
39020;SDS011;25188;51.958;5.842;2023-05-09T09:32:51;11.65;;;7.95;;
39020;SDS011;25188;51.958;5.842;2023-05-09T09:35:17;13.73;;;9.75;;
39020;SDS011;25188;51.958;5.842;2023-05-09T09:37:44;14.75;;;8.63;;
39020;SDS011;25188;51.958;5.842;2023-05-09T09:40:10;13.15;;;8.10;;
39020;SDS011;25188;51.958;5.842;2023-05-09T09:42:43;10.35;;;8.13;;
39020;SDS011;25188;51.958;5.842;2023-05-09T09:47:37;13.20;;;8.35;;
39020;SDS011;25188;51.958;5.842;2023-05-09T09:50:14;12.07;;;7.97;;
39020;SDS011;25188;51.958;5.842;2023-05-09T09:52:40;12.48;;;9.30;;
39020;SDS011;25188;51.958;5.842;2023-05-09T09:55:07;11.48;;;8.00;;
39020;SDS011;25188;51.958;5.842;2023-05-09T09:57:36;9.70;;;7.10;;
39020;SDS011;25188;51.958;5.842;2023-05-09T10:00:04;10.48;;;6.47;;
39020;SDS011;25188;51.958;5.842;2023-05-09T10:02:30;10.65;;;6.35;;
39020;SDS011;25188;51.958;5.842;2023-05-09T10:05:03;8.55;;;6.10;;
39020;SDS011;25188;51.958;5.842;2023-05-09T10:07:33;9.70;;;5.55;;
39020;SDS011;25188;51.958;5.842;2023-05-09T10:09:59;10.70;;;6.32;;
39020;SDS011;25188;51.958;5.842;2023-05-09T10:12:33;8.65;;;5.03;;
39020;SDS011;25188;51.958;5.842;2023-05-09T10:15:05;7.75;;;4.68;;
39020;SDS011;25188;51.958;5.842;2023-05-09T10:17:32;7.05;;;4.20;;
39020;SDS011;25188;51.958;5.842;2023-05-09T10:20:00;6.40;;;4.25;;
39020;SDS011;25188;51.958;5.842;2023-05-09T10:22:28;6.20;;;3.92;;
39020;SDS011;25188;51.958;5.842;2023-05-09T10:27:27;7.60;;;4.18;;
39020;SDS011;25188;51.958;5.842;2023-05-09T10:30:01;7.07;;;4.03;;
39020;SDS011;25188;51.958;5.842;2023-05-09T10:35:07;7.70;;;5.00;;
39020;SDS011;25188;51.958;5.842;2023-05-09T10:37:35;8.43;;;4.35;;
39020;SDS011;25188;51.958;5.842;2023-05-09T10:40:02;8.30;;;4.97;;
39020;SDS011;25188;51.958;5.842;2023-05-09T10:42:29;7.25;;;4.78;;
39020;SDS011;25188;51.958;5.842;2023-05-09T10:44:55;5.75;;;4.30;;
39020;SDS011;25188;51.958;5.842;2023-05-09T10:47:25;7.80;;;4.43;;
39020;SDS011;25188;51.958;5.842;2023-05-09T10:49:52;7.57;;;5.10;;
39020;SDS011;25188;51.958;5.842;2023-05-09T10:52:20;8.10;;;4.57;;
39020;SDS011;25188;51.958;5.842;2023-05-09T10:54:56;7.50;;;5.40;;
39020;SDS011;25188;51.958;5.842;2023-05-09T10:57:29;8.05;;;5.07;;
39020;SDS011;25188;51.958;5.842;2023-05-09T10:59:56;8.25;;;5.40;;
39020;SDS011;25188;51.958;5.842;2023-05-09T11:02:23;9.07;;;5.95;;
39020;SDS011;25188;51.958;5.842;2023-05-09T11:07:41;11.93;;;6.95;;
39020;SDS011;25188;51.958;5.842;2023-05-09T11:10:07;9.00;;;5.47;;
39020;SDS011;25188;51.958;5.842;2023-05-09T11:15:19;7.60;;;5.45;;
39020;SDS011;25188;51.958;5.842;2023-05-09T11:17:46;8.15;;;5.47;;
39020;SDS011;25188;51.958;5.842;2023-05-09T11:20:16;9.02;;;5.88;;
39020;SDS011;25188;51.958;5.842;2023-05-09T11:22:42;6.30;;;4.20;;
39020;SDS011;25188;51.958;5.842;2023-05-09T11:25:11;7.72;;;4.97;;
39020;SDS011;25188;51.958;5.842;2023-05-09T11:30:11;7.70;;;4.77;;
39020;SDS011;25188;51.958;5.842;2023-05-09T11:35:09;6.65;;;3.92;;
39020;SDS011;25188;51.958;5.842;2023-05-09T11:37:43;8.35;;;4.93;;
39020;SDS011;25188;51.958;5.842;2023-05-09T11:40:13;8.10;;;4.40;;
39020;SDS011;25188;51.958;5.842;2023-05-09T11:42:43;6.13;;;3.92;;
39020;SDS011;25188;51.958;5.842;2023-05-09T11:45:14;6.35;;;4.15;;
39020;SDS011;25188;51.958;5.842;2023-05-09T11:47:40;8.02;;;3.65;;
39020;SDS011;25188;51.958;5.842;2023-05-09T11:50:10;6.22;;;3.80;;
39020;SDS011;25188;51.958;5.842;2023-05-09T11:52:37;5.10;;;3.45;;
39020;SDS011;25188;51.958;5.842;2023-05-09T11:55:10;6.30;;;3.92;;
39020;SDS011;25188;51.958;5.842;2023-05-09T11:57:38;4.55;;;2.75;;
39020;SDS011;25188;51.958;5.842;2023-05-09T12:00:05;9.85;;;3.65;;
39020;SDS011;25188;51.958;5.842;2023-05-09T12:02:33;7.20;;;3.80;;
39020;SDS011;25188;51.958;5.842;2023-05-09T12:05:10;6.30;;;3.88;;
39020;SDS011;25188;51.958;5.842;2023-05-09T12:07:38;6.32;;;4.22;;
39020;SDS011;25188;51.958;5.842;2023-05-09T12:10:05;7.10;;;4.15;;
39020;SDS011;25188;51.958;5.842;2023-05-09T12:12:36;6.50;;;3.38;;
39020;SDS011;25188;51.958;5.842;2023-05-09T12:15:10;6.85;;;3.60;;
39020;SDS011;25188;51.958;5.842;2023-05-09T12:17:37;4.97;;;3.10;;
39020;SDS011;25188;51.958;5.842;2023-05-09T12:20:06;5.05;;;2.85;;
39020;SDS011;25188;51.958;5.842;2023-05-09T12:22:33;4.78;;;2.53;;
39020;SDS011;25188;51.958;5.842;2023-05-09T12:25:00;4.72;;;2.55;;
39020;SDS011;25188;51.958;5.842;2023-05-09T12:27:29;4.55;;;2.53;;
39020;SDS011;25188;51.958;5.842;2023-05-09T12:30:03;3.00;;;1.90;;
39020;SDS011;25188;51.958;5.842;2023-05-09T12:32:34;4.78;;;2.55;;
39020;SDS011;25188;51.958;5.842;2023-05-09T12:35:01;3.45;;;2.13;;
39020;SDS011;25188;51.958;5.842;2023-05-09T12:37:28;4.20;;;2.35;;
39020;SDS011;25188;51.958;5.842;2023-05-09T12:40:08;3.35;;;2.42;;
39020;SDS011;25188;51.958;5.842;2023-05-09T12:42:42;4.53;;;2.00;;
39020;SDS011;25188;51.958;5.842;2023-05-09T12:45:08;4.88;;;2.42;;
39020;SDS011;25188;51.958;5.842;2023-05-09T12:47:41;4.00;;;1.73;;
39020;SDS011;25188;51.958;5.842;2023-05-09T12:50:08;6.13;;;2.13;;
39020;SDS011;25188;51.958;5.842;2023-05-09T12:52:38;5.72;;;2.47;;
39020;SDS011;25188;51.958;5.842;2023-05-09T12:55:07;3.58;;;2.20;;
39020;SDS011;25188;51.958;5.842;2023-05-09T12:57:33;3.50;;;1.75;;
39020;SDS011;25188;51.958;5.842;2023-05-09T13:00:00;3.58;;;1.60;;
39020;SDS011;25188;51.958;5.842;2023-05-09T13:02:35;3.75;;;1.73;;
39020;SDS011;25188;51.958;5.842;2023-05-09T13:07:41;3.63;;;2.00;;
39020;SDS011;25188;51.958;5.842;2023-05-09T13:12:45;4.70;;;1.90;;
39020;SDS011;25188;51.958;5.842;2023-05-09T13:15:13;3.10;;;1.92;;
39020;SDS011;25188;51.958;5.842;2023-05-09T13:17:39;4.13;;;2.75;;
39020;SDS011;25188;51.958;5.842;2023-05-09T13:20:05;3.83;;;2.58;;
39020;SDS011;25188;51.958;5.842;2023-05-09T13:22:31;3.75;;;2.25;;
39020;SDS011;25188;51.958;5.842;2023-05-09T13:24:57;4.07;;;2.60;;
39020;SDS011;25188;51.958;5.842;2023-05-09T13:27:23;4.18;;;2.47;;
39020;SDS011;25188;51.958;5.842;2023-05-09T13:29:48;4.00;;;1.92;;
39020;SDS011;25188;51.958;5.842;2023-05-09T13:32:14;4.40;;;2.60;;
39020;SDS011;25188;51.958;5.842;2023-05-09T13:34:40;5.32;;;2.78;;
39020;SDS011;25188;51.958;5.842;2023-05-09T13:37:06;4.25;;;2.38;;
39020;SDS011;25188;51.958;5.842;2023-05-09T13:39:32;3.03;;;1.98;;
39020;SDS011;25188;51.958;5.842;2023-05-09T13:41:57;3.75;;;2.10;;
39020;SDS011;25188;51.958;5.842;2023-05-09T13:44:23;4.13;;;2.38;;
39020;SDS011;25188;51.958;5.842;2023-05-09T13:46:48;3.85;;;2.20;;
39020;SDS011;25188;51.958;5.842;2023-05-09T13:49:14;4.28;;;2.20;;
39020;SDS011;25188;51.958;5.842;2023-05-09T13:51:40;3.60;;;2.50;;
39020;SDS011;25188;51.958;5.842;2023-05-09T13:54:06;4.55;;;3.00;;
39020;SDS011;25188;51.958;5.842;2023-05-09T13:56:37;5.82;;;2.33;;
39020;SDS011;25188;51.958;5.842;2023-05-09T13:59:03;3.25;;;1.98;;
39020;SDS011;25188;51.958;5.842;2023-05-09T14:01:29;3.03;;;1.77;;
39020;SDS011;25188;51.958;5.842;2023-05-09T14:03:55;4.53;;;2.17;;
39020;SDS011;25188;51.958;5.842;2023-05-09T14:06:20;3.78;;;2.20;;
39020;SDS011;25188;51.958;5.842;2023-05-09T14:08:46;3.33;;;1.88;;
39020;SDS011;25188;51.958;5.842;2023-05-09T14:11:11;3.13;;;1.85;;
39020;SDS011;25188;51.958;5.842;2023-05-09T14:13:37;3.50;;;2.08;;
39020;SDS011;25188;51.958;5.842;2023-05-09T14:16:03;3.72;;;1.40;;
39020;SDS011;25188;51.958;5.842;2023-05-09T14:18:30;3.70;;;1.60;;
39020;SDS011;25188;51.958;5.842;2023-05-09T14:20:55;2.53;;;1.10;;
39020;SDS011;25188;51.958;5.842;2023-05-09T14:23:21;3.50;;;1.33;;
39020;SDS011;25188;51.958;5.842;2023-05-09T14:25:47;2.90;;;1.35;;
39020;SDS011;25188;51.958;5.842;2023-05-09T14:28:13;6.38;;;1.70;;
39020;SDS011;25188;51.958;5.842;2023-05-09T14:30:39;3.35;;;1.63;;
39020;SDS011;25188;51.958;5.842;2023-05-09T14:33:04;3.88;;;2.33;;
39020;SDS011;25188;51.958;5.842;2023-05-09T14:35:31;4.93;;;1.95;;
39020;SDS011;25188;51.958;5.842;2023-05-09T14:37:58;4.28;;;1.83;;
39020;SDS011;25188;51.958;5.842;2023-05-09T14:40:25;3.58;;;2.45;;
39020;SDS011;25188;51.958;5.842;2023-05-09T14:42:57;4.90;;;2.03;;
39020;SDS011;25188;51.958;5.842;2023-05-09T14:45:26;4.75;;;2.30;;
39020;SDS011;25188;51.958;5.842;2023-05-09T14:47:52;4.68;;;2.20;;
39020;SDS011;25188;51.958;5.842;2023-05-09T14:50:18;3.58;;;1.85;;
39020;SDS011;25188;51.958;5.842;2023-05-09T14:52:45;3.35;;;2.10;;
39020;SDS011;25188;51.958;5.842;2023-05-09T14:55:11;4.30;;;1.77;;
39020;SDS011;25188;51.958;5.842;2023-05-09T14:57:37;3.10;;;2.05;;
39020;SDS011;25188;51.958;5.842;2023-05-09T15:00:03;4.65;;;2.20;;
39020;SDS011;25188;51.958;5.842;2023-05-09T15:02:29;3.72;;;1.92;;
39020;SDS011;25188;51.958;5.842;2023-05-09T15:04:55;3.35;;;2.05;;
39020;SDS011;25188;51.958;5.842;2023-05-09T15:07:21;8.00;;;2.65;;
39020;SDS011;25188;51.958;5.842;2023-05-09T15:09:47;3.60;;;2.28;;
39020;SDS011;25188;51.958;5.842;2023-05-09T15:12:12;3.45;;;1.92;;